Time;durP1;ratioP1;P1;durP2;ratioP2;P2;SDS_P1;SDS_P2;PMS_P1;PMS_P2;Temp;Humidity;BMP_temperature;BMP_pressure;BME280_temperature;BME280_humidity;BME280_pressure;Samples;Min_cycle;Max_cycle;Signal;HPM_P1;HPM_P2
2021/05/16 00:00:24;;;;;;;1.03;0.80;;;6.00;99.90;;;;;;5056024;28;20670;-84
2021/05/16 00:02:51;;;;;;;1.43;0.90;;;6.00;99.90;;;;;;5037931;28;20443;-84
2021/05/16 00:05:20;;;;;;;1.20;1.10;;;6.00;99.90;;;;;;5055635;28;20430;-85
2021/05/16 00:07:46;;;;;;;2.00;1.00;;;6.00;99.90;;;;;;5038061;28;20424;-85
2021/05/16 00:10:15;;;;;;;1.93;1.40;;;6.00;99.90;;;;;;5055885;28;20411;-84
2021/05/16 00:12:41;;;;;;;1.13;0.90;;;6.00;99.90;;;;;;5055565;28;20534;-84
2021/05/16 00:15:11;;;;;;;0.97;0.70;;;6.00;99.90;;;;;;5037782;28;20821;-84
2021/05/16 00:17:36;;;;;;;0.90;0.90;;;6.00;99.90;;;;;;5054636;28;20498;-84
2021/05/16 00:20:08;;;;;;;1.00;0.90;;;5.90;99.90;;;;;;5040570;28;20470;-83
2021/05/16 00:22:35;;;;;;;2.00;0.80;;;5.90;99.90;;;;;;5062324;28;20288;-85
2021/05/16 00:25:00;;;;;;;1.67;0.90;;;5.90;99.90;;;;;;5040816;28;20423;-85
2021/05/16 00:27:26;;;;;;;0.73;0.70;;;5.80;99.90;;;;;;5045370;28;20412;-85
2021/05/16 00:29:52;;;;;;;1.13;1.03;;;5.80;99.90;;;;;;5044581;28;20181;-84
2021/05/16 00:32:17;;;;;;;1.10;1.00;;;5.80;99.90;;;;;;5044384;28;20695;-84
2021/05/16 00:34:43;;;;;;;0.80;0.80;;;5.80;99.90;;;;;;5060605;28;20586;-84
2021/05/16 00:37:08;;;;;;;1.07;0.97;;;5.80;99.90;;;;;;5060687;28;20256;-85
2021/05/16 00:39:34;;;;;;;1.23;0.80;;;5.80;99.90;;;;;;5043001;28;20185;-85
2021/05/16 00:42:00;;;;;;;1.73;0.97;;;5.80;99.90;;;;;;5043000;28;20198;-85
2021/05/16 00:44:25;;;;;;;0.97;0.97;;;5.80;99.90;;;;;;5041991;28;20289;-84
2021/05/16 00:46:51;;;;;;;1.07;0.80;;;5.80;99.90;;;;;;5057333;28;20185;-84
2021/05/16 00:49:17;;;;;;;1.13;0.70;;;5.70;99.90;;;;;;5040546;28;20188;-85
2021/05/16 00:51:43;;;;;;;1.23;1.10;;;5.80;99.90;;;;;;5050061;28;20265;-85
2021/05/16 00:54:09;;;;;;;0.97;0.87;;;5.70;99.90;;;;;;5059499;28;20181;-84
2021/05/16 00:56:36;;;;;;;1.03;0.90;;;5.70;99.90;;;;;;5043381;28;20494;-85
2021/05/16 00:59:02;;;;;;;1.20;0.90;;;5.70;99.90;;;;;;5060128;28;20925;-85
2021/05/16 01:01:28;;;;;;;1.17;0.77;;;5.70;99.90;;;;;;5060776;28;20438;-85
2021/05/16 01:03:54;;;;;;;1.37;1.03;;;5.80;99.90;;;;;;5060959;28;20220;-84
2021/05/16 01:06:20;;;;;;;0.80;0.80;;;5.70;99.90;;;;;;5059488;28;20260;-84
2021/05/16 01:08:48;;;;;;;1.10;1.10;;;5.70;99.90;;;;;;5061617;28;20419;-85
2021/05/16 01:11:15;;;;;;;1.67;0.70;;;5.70;99.90;;;;;;5060771;28;20482;-84
2021/05/16 01:13:42;;;;;;;0.90;0.90;;;5.70;99.90;;;;;;5062263;28;20460;-85
2021/05/16 01:16:08;;;;;;;1.37;1.27;;;5.70;99.90;;;;;;5065581;28;20404;-84
2021/05/16 01:18:33;;;;;;;0.93;0.70;;;5.70;99.90;;;;;;5059699;28;20902;-84
2021/05/16 01:20:59;;;;;;;0.80;0.80;;;5.70;99.90;;;;;;5059794;28;20185;-84
2021/05/16 01:23:33;;;;;;;0.70;0.70;;;5.60;99.90;;;;;;5043069;28;20173;-84
2021/05/16 01:26:00;;;;;;;0.73;0.73;;;5.60;99.90;;;;;;5058495;28;20177;-84
2021/05/16 01:28:26;;;;;;;1.27;1.00;;;5.60;99.90;;;;;;5058804;28;20766;-84
2021/05/16 01:30:52;;;;;;;1.33;0.90;;;5.60;99.90;;;;;;5041925;28;20495;-84
2021/05/16 01:33:19;;;;;;;1.07;0.97;;;5.60;99.90;;;;;;5059761;28;20193;-84
2021/05/16 01:35:45;;;;;;;0.97;0.90;;;5.60;99.90;;;;;;5059731;28;20408;-83
2021/05/16 01:38:12;;;;;;;1.90;0.90;;;5.60;99.90;;;;;;5041079;28;20419;-84
2021/05/16 01:40:40;;;;;;;1.53;1.00;;;5.60;99.90;;;;;;5059747;28;20170;-84
2021/05/16 01:43:15;;;;;;;1.43;0.80;;;5.60;99.90;;;;;;5041572;28;20428;-84
2021/05/16 01:45:42;;;;;;;0.70;0.70;;;5.60;99.90;;;;;;5059419;28;20404;-84
2021/05/16 01:48:08;;;;;;;1.37;1.20;;;5.60;99.90;;;;;;5058115;28;20417;-84
2021/05/16 01:50:36;;;;;;;2.17;1.00;;;5.60;99.90;;;;;;5041538;28;20416;-84
2021/05/16 01:53:05;;;;;;;2.17;1.00;;;5.60;99.90;;;;;;5041119;28;20483;-84
2021/05/16 01:55:32;;;;;;;1.43;0.93;;;5.60;99.90;;;;;;5041254;28;20467;-84
2021/05/16 01:57:58;;;;;;;2.07;0.93;;;5.70;99.90;;;;;;5041658;28;20408;-84
2021/05/16 02:00:29;;;;;;;2.00;1.10;;;5.70;99.90;;;;;;5059748;28;20411;-84
2021/05/16 02:02:55;;;;;;;0.87;0.87;;;5.70;99.90;;;;;;5059407;28;20483;-84
2021/05/16 02:05:21;;;;;;;1.63;0.93;;;5.70;99.90;;;;;;5041274;28;20423;-84
2021/05/16 02:07:53;;;;;;;0.83;0.80;;;5.70;99.90;;;;;;5040856;28;20408;-84
2021/05/16 02:10:21;;;;;;;2.00;0.80;;;5.70;99.90;;;;;;5059086;28;20169;-83
2021/05/16 02:12:47;;;;;;;1.30;0.87;;;5.70;99.90;;;;;;5059088;28;20467;-82
2021/05/16 02:15:13;;;;;;;2.00;0.70;;;5.70;99.90;;;;;;5040737;28;20419;-82
2021/05/16 02:17:41;;;;;;;2.70;1.33;;;5.70;99.90;;;;;;5040240;28;20420;-84
2021/05/16 02:20:14;;;;;;;2.03;0.80;;;5.70;99.90;;;;;;5040503;28;20440;-84
2021/05/16 02:22:40;;;;;;;1.00;0.80;;;5.70;99.90;;;;;;5040364;28;20451;-84
2021/05/16 02:25:07;;;;;;;0.67;0.67;;;5.70;99.90;;;;;;5040291;28;20753;-84
2021/05/16 02:27:35;;;;;;;1.67;1.00;;;5.70;99.90;;;;;;5058557;28;20647;-84
2021/05/16 02:30:00;;;;;;;3.50;1.23;;;5.70;99.90;;;;;;5040233;28;20420;-84
2021/05/16 02:32:26;;;;;;;1.47;1.20;;;5.80;99.90;;;;;;5057375;28;20511;-84
2021/05/16 02:34:52;;;;;;;2.63;1.03;;;5.80;99.90;;;;;;5057830;28;20587;-84
2021/05/16 02:37:18;;;;;;;2.40;0.90;;;5.80;99.90;;;;;;5057318;28;20229;-84
2021/05/16 02:39:44;;;;;;;2.03;0.87;;;5.90;99.90;;;;;;5057790;28;20245;-84
2021/05/16 02:42:09;;;;;;;1.13;0.97;;;5.90;99.90;;;;;;5040071;28;20218;-84
2021/05/16 02:44:35;;;;;;;1.57;0.90;;;6.00;99.90;;;;;;5058038;28;20186;-84
2021/05/16 02:47:02;;;;;;;2.30;1.20;;;6.00;99.90;;;;;;5039700;28;20194;-82
2021/05/16 02:49:29;;;;;;;3.77;1.00;;;6.00;99.90;;;;;;5056251;28;20211;-82
2021/05/16 02:51:55;;;;;;;2.60;1.40;;;6.10;99.90;;;;;;5040361;28;20210;-82
2021/05/16 02:54:21;;;;;;;2.63;1.27;;;6.10;99.90;;;;;;5060192;28;20230;-82
2021/05/16 02:56:46;;;;;;;4.60;1.50;;;6.10;99.90;;;;;;5067413;28;20197;-82
2021/05/16 02:59:12;;;;;;;5.00;1.30;;;6.10;99.90;;;;;;5059246;28;20186;-82
2021/05/16 03:01:38;;;;;;;5.80;3.23;;;6.10;99.90;;;;;;5075853;28;20204;-81
2021/05/16 03:04:04;;;;;;;9.30;5.57;;;6.10;99.90;;;;;;5042718;28;20186;-81
2021/05/16 03:06:30;;;;;;;12.80;5.60;;;6.10;99.90;;;;;;5057432;28;20182;-82
2021/05/16 03:08:55;;;;;;;10.27;4.90;;;6.10;99.90;;;;;;5040994;28;20189;-82
2021/05/16 03:11:21;;;;;;;26.40;12.07;;;6.10;99.90;;;;;;5057135;28;20219;-82
2021/05/16 03:13:47;;;;;;;9.90;4.70;;;6.10;99.90;;;;;;5042517;28;20214;-82
2021/05/16 03:16:12;;;;;;;9.90;5.07;;;6.20;99.90;;;;;;5042554;28;20196;-82
2021/05/16 03:18:38;;;;;;;19.30;8.27;;;6.20;99.90;;;;;;5059249;28;20176;-81
2021/05/16 03:21:04;;;;;;;6.23;1.93;;;6.20;99.90;;;;;;5040881;28;20206;-82
2021/05/16 03:23:30;;;;;;;11.03;6.00;;;6.20;99.90;;;;;;5041939;28;20182;-82
2021/05/16 03:26:01;;;;;;;3.90;2.10;;;6.20;99.90;;;;;;5042229;28;20190;-82
2021/05/16 03:28:30;;;;;;;5.10;2.10;;;6.20;99.90;;;;;;5058953;28;20261;-82
2021/05/16 03:30:57;;;;;;;6.63;3.50;;;6.20;99.90;;;;;;5059192;28;20632;-82
2021/05/16 03:33:23;;;;;;;5.53;2.73;;;6.20;99.90;;;;;;5059626;28;20222;-84
2021/05/16 03:35:49;;;;;;;4.73;1.43;;;6.20;99.90;;;;;;5042774;28;20270;-84
2021/05/16 03:38:15;;;;;;;2.50;1.90;;;6.20;99.90;;;;;;5045028;28;20197;-83
2021/05/16 03:40:41;;;;;;;3.23;1.83;;;6.20;99.90;;;;;;5039870;28;20181;-84
2021/05/16 03:43:07;;;;;;;2.43;1.60;;;6.20;99.90;;;;;;5039158;28;20197;-84
2021/05/16 03:45:33;;;;;;;4.30;1.50;;;6.20;99.90;;;;;;5039686;28;20175;-84
2021/05/16 03:47:58;;;;;;;3.70;1.60;;;6.20;99.90;;;;;;5039662;28;20609;-84
2021/05/16 03:50:24;;;;;;;2.27;1.80;;;6.20;99.90;;;;;;5039554;28;20176;-84
2021/05/16 03:52:50;;;;;;;3.13;1.57;;;6.20;99.90;;;;;;5039297;28;20703;-84
2021/05/16 03:55:18;;;;;;;2.27;1.07;;;6.20;99.90;;;;;;5058544;28;20214;-85
2021/05/16 03:57:43;;;;;;;6.17;2.37;;;6.20;99.90;;;;;;5042513;28;20178;-85
2021/05/16 04:00:10;;;;;;;3.47;1.70;;;6.20;99.90;;;;;;5041895;28;20181;-86
2021/05/16 04:02:35;;;;;;;3.47;1.43;;;6.20;99.90;;;;;;5062007;28;20198;-82
2021/05/16 04:05:01;;;;;;;3.20;1.30;;;6.30;99.90;;;;;;5044196;28;20181;-84
2021/05/16 04:07:26;;;;;;;3.13;1.20;;;6.30;99.90;;;;;;5043407;28;20174;-84
2021/05/16 04:09:52;;;;;;;4.50;1.43;;;6.30;99.90;;;;;;5061991;28;20175;-85
2021/05/16 04:12:18;;;;;;;6.27;2.03;;;6.30;99.90;;;;;;5061760;28;20208;-84
2021/05/16 04:14:45;;;;;;;2.50;1.37;;;6.30;99.90;;;;;;5043358;28;20182;-84
2021/05/16 04:17:11;;;;;;;4.53;1.60;;;6.40;99.90;;;;;;5060992;28;20174;-84
2021/05/16 04:19:37;;;;;;;3.60;1.10;;;6.40;99.90;;;;;;5043433;28;20181;-83
2021/05/16 04:22:03;;;;;;;1.77;1.13;;;6.40;99.90;;;;;;5060613;28;20216;-84
2021/05/16 04:24:29;;;;;;;4.13;1.30;;;6.30;99.90;;;;;;5060429;28;20201;-84
2021/05/16 04:26:55;;;;;;;1.70;1.30;;;6.10;99.90;;;;;;5042309;28;20183;-84
2021/05/16 04:29:20;;;;;;;4.53;1.50;;;6.00;99.90;;;;;;5060289;28;20178;-84
2021/05/16 04:31:46;;;;;;;2.40;1.30;;;5.90;99.90;;;;;;5060123;28;20228;-84
2021/05/16 04:34:12;;;;;;;1.10;1.00;;;5.80;99.90;;;;;;5042452;28;20539;-84
2021/05/16 04:36:37;;;;;;;1.97;1.27;;;5.80;99.90;;;;;;5042218;28;20175;-84
2021/05/16 04:39:04;;;;;;;4.90;1.60;;;5.70;99.90;;;;;;5059828;28;20182;-84
2021/05/16 04:41:32;;;;;;;3.10;1.27;;;5.70;99.90;;;;;;5059252;28;20676;-84
2021/05/16 04:43:58;;;;;;;3.00;1.30;;;5.70;99.90;;;;;;5042068;28;20185;-84
2021/05/16 04:46:24;;;;;;;4.23;1.80;;;5.70;99.90;;;;;;5059768;28;20171;-84
2021/05/16 04:48:49;;;;;;;2.13;1.30;;;5.80;99.90;;;;;;5059915;28;20179;-84
2021/05/16 04:51:15;;;;;;;1.67;1.53;;;5.80;99.90;;;;;;5058983;28;20201;-84
2021/05/16 04:53:40;;;;;;;3.97;1.63;;;5.90;99.90;;;;;;5042045;28;20174;-84
2021/05/16 04:56:06;;;;;;;3.43;1.30;;;5.90;99.90;;;;;;5060322;28;20258;-84
2021/05/16 04:58:32;;;;;;;1.77;1.43;;;6.00;99.90;;;;;;5041644;28;20177;-84
2021/05/16 05:00:58;;;;;;;2.00;1.43;;;6.20;99.90;;;;;;5041362;28;20174;-84
2021/05/16 05:03:24;;;;;;;2.43;1.30;;;6.20;99.90;;;;;;5041032;28;20178;-84
2021/05/16 05:05:54;;;;;;;3.73;1.33;;;6.30;99.90;;;;;;5040318;28;20309;-84
2021/05/16 05:08:21;;;;;;;4.63;1.73;;;6.30;99.90;;;;;;5058578;28;20194;-84
2021/05/16 05:10:47;;;;;;;2.93;1.30;;;6.40;99.90;;;;;;5058081;28;20179;-84
2021/05/16 05:13:13;;;;;;;3.13;1.53;;;6.50;99.90;;;;;;5048699;28;20259;-85
2021/05/16 05:15:39;;;;;;;2.93;1.57;;;6.60;99.90;;;;;;5042209;28;20178;-85
2021/05/16 05:18:05;;;;;;;2.27;1.47;;;6.80;99.90;;;;;;5059706;28;20167;-85
2021/05/16 05:20:30;;;;;;;3.10;1.40;;;6.80;99.90;;;;;;5041539;28;20266;-85
2021/05/16 05:22:56;;;;;;;4.47;1.40;;;7.00;99.90;;;;;;5060260;28;20198;-85
2021/05/16 05:25:22;;;;;;;4.77;2.00;;;7.20;99.90;;;;;;5059441;28;20700;-85
2021/05/16 05:27:47;;;;;;;6.70;1.90;;;7.30;99.90;;;;;;5059214;28;20198;-85
2021/05/16 05:30:14;;;;;;;2.43;1.57;;;7.40;99.90;;;;;;5059943;28;20540;-85
2021/05/16 05:32:39;;;;;;;4.53;1.37;;;7.60;99.90;;;;;;5042062;28;20285;-85
2021/05/16 05:35:07;;;;;;;4.77;1.37;;;7.70;99.90;;;;;;5041884;28;20171;-85
2021/05/16 05:37:32;;;;;;;2.80;1.30;;;7.90;99.90;;;;;;5059397;28;20176;-84
2021/05/16 05:39:58;;;;;;;3.63;1.00;;;8.10;99.90;;;;;;5059167;28;20512;-85
2021/05/16 05:42:25;;;;;;;8.00;1.90;;;8.20;99.90;;;;;;5041483;28;20203;-85
2021/05/16 05:44:51;;;;;;;4.37;1.63;;;8.40;99.90;;;;;;5041263;28;20194;-84
2021/05/16 05:47:17;;;;;;;3.63;1.40;;;8.50;99.90;;;;;;5058628;28;20174;-85
2021/05/16 05:49:43;;;;;;;3.13;1.30;;;8.60;99.90;;;;;;5058275;28;20188;-84
2021/05/16 05:52:09;;;;;;;3.90;1.53;;;8.70;99.90;;;;;;5059178;28;20568;-85
2021/05/16 05:54:36;;;;;;;3.43;1.30;;;8.70;99.90;;;;;;5057884;28;20537;-84
2021/05/16 05:57:02;;;;;;;4.70;1.40;;;8.80;99.90;;;;;;5042631;28;20312;-84
2021/05/16 05:59:27;;;;;;;2.80;1.43;;;8.90;99.90;;;;;;5060822;28;20719;-84
2021/05/16 06:01:53;;;;;;;3.83;1.40;;;9.00;99.90;;;;;;5062659;28;20196;-84
2021/05/16 06:04:18;;;;;;;5.73;1.67;;;9.00;99.90;;;;;;5044608;28;20192;-84
2021/05/16 06:06:44;;;;;;;3.47;1.30;;;9.10;99.90;;;;;;5041998;28;20243;-84
2021/05/16 06:09:10;;;;;;;3.47;1.50;;;9.20;99.90;;;;;;5041836;28;20251;-84
2021/05/16 06:11:35;;;;;;;5.83;1.53;;;9.30;99.90;;;;;;5058687;28;20663;-84
2021/05/16 06:14:01;;;;;;;3.20;1.40;;;9.40;99.90;;;;;;5062635;28;20186;-85
2021/05/16 06:16:27;;;;;;;7.03;1.50;;;9.60;99.90;;;;;;5067297;28;20177;-84
2021/05/16 06:18:54;;;;;;;2.07;1.10;;;9.70;99.90;;;;;;5057556;28;20192;-83
2021/05/16 06:21:21;;;;;;;4.30;1.50;;;9.80;99.90;;;;;;5073615;28;20280;-81
2021/05/16 06:24:05;;;;;;;6.03;1.33;;;10.00;99.90;;;;;;5043258;28;20182;-82
2021/05/16 06:26:32;;;;;;;2.50;1.33;;;10.10;99.90;;;;;;5041968;28;20178;-82
2021/05/16 06:28:59;;;;;;;2.07;1.37;;;10.20;99.90;;;;;;5059100;28;20187;-82
2021/05/16 06:31:24;;;;;;;2.50;1.37;;;10.30;99.90;;;;;;5059160;28;20205;-82
2021/05/16 06:33:51;;;;;;;2.73;1.40;;;10.40;99.90;;;;;;5059048;28;20169;-82
2021/05/16 06:36:17;;;;;;;2.07;1.17;;;10.50;99.90;;;;;;5040382;28;20643;-82
2021/05/16 06:38:42;;;;;;;3.07;1.47;;;10.60;99.90;;;;;;5039142;28;20737;-82
2021/05/16 06:41:08;;;;;;;3.60;1.17;;;10.60;99.90;;;;;;5038216;28;20205;-82
2021/05/16 06:43:34;;;;;;;3.33;1.33;;;10.70;99.90;;;;;;5040409;28;20184;-82
2021/05/16 06:46:00;;;;;;;3.57;1.40;;;10.80;99.90;;;;;;5057579;28;20197;-82
2021/05/16 06:48:26;;;;;;;3.40;1.30;;;10.90;99.90;;;;;;5040636;28;20659;-83
2021/05/16 06:50:52;;;;;;;4.30;1.33;;;11.00;99.90;;;;;;5057963;28;20192;-83
2021/05/16 06:53:18;;;;;;;3.83;1.30;;;10.90;99.90;;;;;;5040100;28;20261;-83
2021/05/16 06:55:44;;;;;;;2.77;1.17;;;11.00;99.90;;;;;;5040689;28;20599;-83
2021/05/16 06:58:10;;;;;;;5.67;1.20;;;11.10;99.90;;;;;;5039584;28;20172;-83
2021/05/16 07:00:35;;;;;;;3.60;1.03;;;11.30;99.90;;;;;;5040987;28;20180;-83
2021/05/16 07:03:01;;;;;;;3.60;1.13;;;11.20;99.90;;;;;;5059051;28;20303;-83
2021/05/16 07:05:27;;;;;;;4.80;1.10;;;11.20;99.90;;;;;;5040827;28;20207;-83
2021/05/16 07:07:52;;;;;;;3.90;1.00;;;11.30;99.90;;;;;;5059781;28;20181;-83
2021/05/16 07:10:18;;;;;;;11.40;1.27;;;11.30;99.90;;;;;;5058289;28;20182;-84
2021/05/16 07:12:44;;;;;;;2.30;1.07;;;11.40;99.90;;;;;;5040846;28;20621;-84
2021/05/16 07:15:13;;;;;;;3.17;1.00;;;11.50;99.90;;;;;;5041644;28;20546;-83
2021/05/16 07:17:40;;;;;;;2.23;1.00;;;11.50;99.90;;;;;;5042267;28;20200;-83
2021/05/16 07:20:06;;;;;;;2.93;1.20;;;11.70;99.90;;;;;;5041189;28;20177;-85
2021/05/16 07:22:32;;;;;;;4.60;1.30;;;11.90;99.90;;;;;;5039614;28;20213;-79
2021/05/16 07:24:57;;;;;;;2.93;1.17;;;12.00;99.90;;;;;;5065647;28;20239;-79
2021/05/16 07:27:23;;;;;;;2.67;0.80;;;12.00;99.90;;;;;;5068523;28;20700;-79
2021/05/16 07:29:49;;;;;;;5.27;0.93;;;11.90;99.90;;;;;;5042791;28;20184;-80
2021/05/16 07:32:15;;;;;;;3.90;1.00;;;11.90;99.90;;;;;;5058838;28;20227;-79
2021/05/16 07:34:41;;;;;;;3.27;1.20;;;11.90;99.90;;;;;;5060584;28;20170;-79
2021/05/16 07:37:07;;;;;;;3.57;0.80;;;12.00;99.90;;;;;;5062824;28;20181;-79
2021/05/16 07:39:32;;;;;;;2.63;0.80;;;12.00;99.90;;;;;;5061432;28;20193;-79
2021/05/16 07:41:58;;;;;;;4.20;1.07;;;12.10;99.90;;;;;;5061157;28;20624;-79
2021/05/16 07:44:24;;;;;;;3.17;1.10;;;12.20;99.90;;;;;;5042767;28;20325;-79
2021/05/16 07:46:49;;;;;;;2.27;0.80;;;12.20;99.90;;;;;;5059168;28;20182;-81
2021/05/16 07:49:15;;;;;;;3.47;1.47;;;12.50;99.90;;;;;;5060043;28;20553;-85
2021/05/16 07:51:41;;;;;;;3.57;1.00;;;12.50;99.90;;;;;;5060350;28;20209;-85
2021/05/16 07:54:08;;;;;;;6.67;1.30;;;12.50;99.90;;;;;;5042679;28;20256;-83
2021/05/16 07:56:34;;;;;;;1.57;0.67;;;12.80;99.90;;;;;;5042822;28;20223;-84
2021/05/16 07:59:00;;;;;;;3.90;1.17;;;12.90;99.90;;;;;;5060885;28;20173;-82
2021/05/16 08:01:26;;;;;;;6.03;1.10;;;12.80;99.90;;;;;;5059505;28;20260;-83
2021/05/16 08:03:52;;;;;;;3.10;1.10;;;12.90;99.90;;;;;;5061586;28;20193;-84
2021/05/16 08:06:17;;;;;;;3.73;1.00;;;13.10;99.90;;;;;;5060392;28;20178;-83
2021/05/16 08:08:43;;;;;;;1.43;0.73;;;13.20;99.90;;;;;;5044632;28;20185;-84
2021/05/16 08:11:09;;;;;;;4.60;1.30;;;13.30;99.90;;;;;;5044354;28;20185;-83
2021/05/16 08:13:35;;;;;;;3.20;0.73;;;13.80;99.90;;;;;;5062780;28;20193;-83
2021/05/16 08:16:01;;;;;;;4.13;1.23;;;13.80;99.90;;;;;;5050934;28;20182;-84
2021/05/16 08:18:27;;;;;;;3.63;1.03;;;14.70;99.90;;;;;;5042315;28;20619;-83
2021/05/16 08:20:53;;;;;;;3.90;1.30;;;15.50;99.90;;;;;;5041958;28;20190;-84
2021/05/16 08:23:18;;;;;;;1.60;0.83;;;15.60;99.90;;;;;;5043097;28;20716;-85
2021/05/16 08:25:44;;;;;;;3.23;1.10;;;15.70;99.90;;;;;;5045872;28;20185;-84
2021/05/16 08:28:10;;;;;;;6.57;1.10;;;15.70;99.90;;;;;;5046182;28;20241;-83
2021/05/16 08:30:36;;;;;;;4.70;1.07;;;15.20;99.90;;;;;;5040023;28;20178;-83
2021/05/16 08:33:02;;;;;;;3.07;1.20;;;15.00;99.90;;;;;;5038394;28;20221;-83
2021/05/16 08:35:28;;;;;;;2.50;0.80;;;15.10;99.90;;;;;;5040893;28;20655;-83
2021/05/16 08:37:55;;;;;;;5.43;1.30;;;15.60;99.90;;;;;;5041162;28;20206;-83
2021/05/16 08:40:21;;;;;;;3.00;0.80;;;15.70;99.90;;;;;;5041863;28;20177;-83
2021/05/16 08:42:47;;;;;;;3.73;1.00;;;14.70;99.90;;;;;;5059249;28;20552;-83
2021/05/16 08:45:14;;;;;;;2.00;1.00;;;15.60;99.90;;;;;;5042392;28;20186;-83
2021/05/16 08:47:44;;;;;;;2.73;1.00;;;16.50;99.90;;;;;;5042843;28;20178;-83
2021/05/16 08:50:12;;;;;;;3.20;0.90;;;17.20;99.70;;;;;;5045816;28;20244;-83
2021/05/16 08:52:38;;;;;;;3.10;1.13;;;17.10;97.10;;;;;;5045679;28;20312;-83
2021/05/16 08:55:06;;;;;;;3.87;1.27;;;16.20;97.50;;;;;;5046736;28;20225;-82
2021/05/16 08:57:32;;;;;;;4.03;1.00;;;16.00;97.00;;;;;;5046151;28;20250;-82
2021/05/16 09:00:07;;;;;;;3.37;0.90;;;15.60;97.20;;;;;;5045326;28;20218;-83
2021/05/16 09:02:33;;;;;;;3.13;1.27;;;15.10;98.70;;;;;;5046448;28;20630;-83
2021/05/16 09:04:59;;;;;;;4.73;0.83;;;15.00;98.00;;;;;;5044256;28;20190;-85
2021/05/16 09:07:31;;;;;;;1.60;0.87;;;15.10;98.40;;;;;;5060352;28;20189;-84
2021/05/16 09:09:57;;;;;;;5.23;1.20;;;14.60;99.30;;;;;;5043379;28;20182;-83
2021/05/16 09:12:23;;;;;;;3.50;0.90;;;14.50;98.50;;;;;;5044536;28;20221;-83
2021/05/16 09:14:57;;;;;;;3.07;0.93;;;15.30;99.30;;;;;;5060359;28;20702;-83
2021/05/16 09:17:30;;;;;;;3.27;1.03;;;16.40;97.10;;;;;;5044903;28;20281;-83
2021/05/16 09:20:01;;;;;;;4.17;1.20;;;16.20;95.90;;;;;;5045339;28;20186;-84
2021/05/16 09:22:43;;;;;;;4.67;1.30;;;16.30;97.00;;;;;;5063245;28;20239;-84
2021/05/16 09:25:30;;;;;;;2.60;1.10;;;16.40;95.50;;;;;;5065397;28;20508;-84
2021/05/16 09:28:10;;;;;;;1.93;1.00;;;15.40;97.80;;;;;;5066572;28;20244;-84
2021/05/16 09:30:39;;;;;;;3.33;1.27;;;15.60;98.10;;;;;;5068077;28;20171;-83
2021/05/16 09:33:13;;;;;;;2.93;1.07;;;15.30;97.50;;;;;;5056816;28;20214;-84
2021/05/16 09:35:40;;;;;;;2.70;0.80;;;15.10;97.40;;;;;;5079836;28;20155;-83
2021/05/16 09:38:12;;;;;;;2.67;0.97;;;15.20;98.50;;;;;;5058575;28;20180;-83
2021/05/16 09:40:43;;;;;;;2.53;1.03;;;15.50;98.50;;;;;;5042790;28;20636;-83
2021/05/16 09:43:27;;;;;;;3.57;1.20;;;15.50;98.40;;;;;;5042235;28;20643;-83
2021/05/16 09:45:54;;;;;;;3.83;1.07;;;15.60;98.00;;;;;;5043000;28;20187;-84
2021/05/16 09:48:29;;;;;;;2.63;1.30;;;15.60;98.00;;;;;;5043006;28;20226;-83
2021/05/16 09:51:22;;;;;;;3.53;1.03;;;15.50;97.80;;;;;;5005009;28;20230;-83
2021/05/16 09:54:01;;;;;;;4.63;1.57;;;15.40;97.30;;;;;;5042360;28;20180;-83
2021/05/16 09:56:36;;;;;;;2.43;0.90;;;15.30;97.30;;;;;;5042692;28;20638;-83
2021/05/16 09:59:07;;;;;;;3.70;1.17;;;15.30;95.60;;;;;;5042941;28;20179;-83
2021/05/16 10:01:33;;;;;;;4.23;1.23;;;15.30;96.60;;;;;;5042743;28;20209;-83
2021/05/16 10:04:01;;;;;;;3.87;1.03;;;15.50;95.80;;;;;;5059714;28;20182;-83
2021/05/16 10:06:28;;;;;;;2.67;1.17;;;15.60;96.60;;;;;;5059156;28;20175;-83
2021/05/16 10:08:54;;;;;;;3.03;1.07;;;15.70;95.00;;;;;;5058378;28;20180;-83
2021/05/16 10:11:29;;;;;;;2.80;1.00;;;15.60;93.70;;;;;;5040152;28;20222;-83
2021/05/16 10:14:16;;;;;;;3.53;1.30;;;15.50;94.80;;;;;;5057710;28;20242;-83
2021/05/16 10:16:48;;;;;;;2.23;0.80;;;15.60;95.10;;;;;;5058593;28;20160;-83
2021/05/16 10:19:25;;;;;;;2.03;1.17;;;15.90;95.20;;;;;;5058230;28;20168;-83
2021/05/16 10:22:15;;;;;;;2.67;1.00;;;15.90;94.30;;;;;;5047122;28;20215;-83
2021/05/16 10:24:51;;;;;;;2.80;0.93;;;16.30;94.10;;;;;;5037256;28;20192;-83
2021/05/16 10:27:23;;;;;;;2.30;0.97;;;16.20;93.20;;;;;;5061674;28;20667;-83
2021/05/16 10:30:00;;;;;;;3.07;1.00;;;16.10;93.00;;;;;;5065373;28;20162;-84
2021/05/16 10:32:50;;;;;;;4.90;1.20;;;16.10;93.20;;;;;;5044849;28;20217;-84
2021/05/16 10:35:17;;;;;;;2.07;0.90;;;16.00;92.50;;;;;;5056620;28;20195;-84
2021/05/16 10:37:51;;;;;;;6.20;0.83;;;15.60;92.90;;;;;;5062727;28;20178;-84
2021/05/16 10:40:23;;;;;;;1.83;0.70;;;15.80;94.60;;;;;;5044735;28;20178;-85
2021/05/16 10:42:57;;;;;;;3.37;0.90;;;15.90;92.60;;;;;;5044762;28;20203;-85
2021/05/16 10:45:24;;;;;;;4.03;0.90;;;15.90;92.30;;;;;;5046496;28;20202;-84
2021/05/16 10:47:52;;;;;;;5.57;1.50;;;16.40;92.60;;;;;;5064774;28;20179;-85
2021/05/16 10:50:24;;;;;;;4.03;1.30;;;16.70;91.40;;;;;;5048511;28;20256;-85
2021/05/16 10:53:01;;;;;;;1.47;0.70;;;17.20;91.10;;;;;;5044371;28;20208;-85
2021/05/16 10:55:36;;;;;;;3.13;0.90;;;17.80;91.00;;;;;;5044390;28;20672;-85
2021/05/16 10:58:02;;;;;;;4.50;1.00;;;18.30;87.80;;;;;;5043537;28;20693;-85
2021/05/16 11:00:31;;;;;;;1.80;1.10;;;17.70;85.00;;;;;;5042712;28;20207;-84
2021/05/16 11:03:07;;;;;;;2.43;0.90;;;17.20;83.30;;;;;;5059984;28;20228;-84
2021/05/16 11:08:19;;;;;;;2.20;0.90;;;17.30;85.10;;;;;;5061876;28;20188;-85
2021/05/16 11:10:45;;;;;;;2.33;0.87;;;17.80;86.30;;;;;;5061676;28;20539;-85
2021/05/16 11:13:26;;;;;;;2.10;0.90;;;18.40;86.40;;;;;;5043627;28;20212;-85
2021/05/16 11:16:06;;;;;;;2.37;0.97;;;18.80;83.10;;;;;;5045226;28;20174;-85
2021/05/16 11:18:32;;;;;;;2.40;1.10;;;19.20;82.80;;;;;;5061796;28;20354;-84
2021/05/16 11:21:00;;;;;;;3.23;0.77;;;19.30;77.40;;;;;;5062947;28;20209;-84
2021/05/16 11:23:28;;;;;;;1.47;1.00;;;19.50;77.60;;;;;;5045456;28;20196;-84
2021/05/16 11:26:05;;;;;;;1.87;0.80;;;19.60;74.00;;;;;;5063064;28;20174;-85
2021/05/16 11:28:33;;;;;;;4.63;1.10;;;19.90;75.50;;;;;;5063004;28;20165;-84
2021/05/16 11:31:06;;;;;;;2.10;1.10;;;20.20;74.00;;;;;;5044353;28;20193;-84
2021/05/16 11:33:34;;;;;;;2.43;1.03;;;20.00;69.20;;;;;;5049666;28;20203;-84
2021/05/16 11:36:10;;;;;;;1.07;0.73;;;18.90;72.80;;;;;;5084159;28;20252;-84
2021/05/16 11:38:39;;;;;;;2.37;1.17;;;18.70;72.60;;;;;;5084616;28;20587;-84
2021/05/16 11:41:06;;;;;;;1.73;0.83;;;18.50;76.60;;;;;;5070231;28;20184;-84
2021/05/16 11:43:42;;;;;;;2.30;1.07;;;18.40;77.50;;;;;;5070687;28;20187;-84
2021/05/16 11:46:08;;;;;;;2.47;1.30;;;17.60;74.00;;;;;;5065115;28;20276;-84
2021/05/16 11:48:38;;;;;;;3.70;1.07;;;17.20;71.00;;;;;;5083143;28;20199;-86
2021/05/16 11:51:14;;;;;;;1.40;0.90;;;17.20;73.00;;;;;;5064923;28;20176;-85
2021/05/16 11:53:42;;;;;;;2.70;1.00;;;17.30;74.80;;;;;;5082908;28;20244;-84
2021/05/16 11:56:16;;;;;;;4.63;1.00;;;17.60;72.80;;;;;;5081904;28;20589;-84
2021/05/16 11:58:47;;;;;;;2.43;0.80;;;17.60;73.10;;;;;;5063781;28;20192;-85
2021/05/16 12:01:13;;;;;;;3.80;1.00;;;17.10;73.30;;;;;;5065702;28;20193;-85
2021/05/16 12:04:00;;;;;;;1.90;0.80;;;17.20;76.90;;;;;;5064427;28;20200;-85
2021/05/16 12:06:28;;;;;;;2.17;0.70;;;16.80;75.70;;;;;;5065287;28;20176;-84
2021/05/16 12:09:11;;;;;;;2.13;0.83;;;16.50;75.90;;;;;;5065011;28;20210;-85
2021/05/16 12:11:39;;;;;;;1.30;0.80;;;16.20;75.50;;;;;;5063757;28;20240;-85
2021/05/16 12:14:16;;;;;;;4.17;0.90;;;16.10;74.90;;;;;;5065106;28;20205;-86
2021/05/16 12:16:52;;;;;;;1.33;0.50;;;16.10;73.90;;;;;;5082604;28;20173;-85
2021/05/16 12:19:22;;;;;;;1.93;0.70;;;16.00;76.10;;;;;;5083237;28;20234;-84
2021/05/16 12:21:53;;;;;;;1.50;0.70;;;16.00;75.80;;;;;;5082857;28;20224;-85
2021/05/16 12:24:24;;;;;;;1.00;0.60;;;15.60;75.60;;;;;;5066987;28;20184;-85
2021/05/16 12:26:50;;;;;;;1.53;0.70;;;15.50;75.90;;;;;;5066831;28;20179;-85
2021/05/16 12:29:18;;;;;;;3.00;0.80;;;15.40;78.20;;;;;;5085078;28;20574;-83
2021/05/16 12:31:44;;;;;;;1.53;0.87;;;15.40;79.40;;;;;;5066695;28;20241;-83
2021/05/16 12:34:11;;;;;;;1.80;0.90;;;15.20;76.40;;;;;;5085208;28;20647;-82
2021/05/16 12:36:57;;;;;;;1.87;1.20;;;15.10;76.30;;;;;;5064445;28;20600;-82
2021/05/16 12:39:38;;;;;;;1.83;0.90;;;14.90;78.00;;;;;;5063508;28;20176;-83
2021/05/16 12:42:37;;;;;;;1.20;0.73;;;14.80;77.90;;;;;;5090846;28;20200;-82
2021/05/16 12:45:20;;;;;;;1.37;0.97;;;14.80;78.20;;;;;;5100220;28;20181;-83
2021/05/16 12:48:01;;;;;;;6.83;2.87;;;14.70;77.60;;;;;;5081124;28;20158;-82
2021/05/16 12:50:46;;;;;;;1.20;0.80;;;14.70;79.70;;;;;;5064446;28;20180;-83
2021/05/16 12:53:34;;;;;;;4.77;1.10;;;14.90;80.80;;;;;;5092227;28;20209;-83
2021/05/16 12:56:17;;;;;;;2.07;1.00;;;15.00;78.10;;;;;;5063837;28;20627;-84
2021/05/16 12:58:56;;;;;;;1.33;0.77;;;14.80;76.80;;;;;;5064621;28;20530;-82
2021/05/16 13:01:23;;;;;;;2.57;1.10;;;14.70;78.80;;;;;;5066486;28;20204;-84